رشت, ایران

02:21 PM IRST on ژانویه 17, 2017 (GMT +0330)
Rasht | | Change Station

Elev -39 ft 37.33 °N, 49.61 °E | Updated 21 minutes ago

بیشتر ابری
بیشتر ابری
52 °F
Feels Like 52 °F
N
7
باد متغير باد from WNW

امروز
High -- | Low -- °F
--% Chance of Precip.
دیروز
High -- | Low -- °F
Precip. -- در
فشار 30.24 در
ديد 3.7 مايل، ميل (در برابر كيلومتر
ابری ابرهای پراکنده 1500 ft
بیشتر ابری 8000 ft
قطره شبنم 45 °F
رطوبت 76%
بارش باران 0.00 در
برف عمیق Not available.
7:23 AM 5:19 PM
Waning Gibbous, 73% visible
METAR OIGG 171030Z 30006KT 6000 SCT015 BKN080 11/07 Q1024
فشار 30.24 در
ديد 3.7 مايل، ميل (در برابر كيلومتر
ابری ابرهای پراکنده 1500 ft
بیشتر ابری 8000 ft
قطره شبنم 45 °F
رطوبت 76%
بارش باران 0.00 در
برف عمیق Not available.
7:23 AM 5:19 PM
Waning Gibbous, 73% visible
METAR OIGG 171030Z 30006KT 6000 SCT015 BKN080 11/07 Q1024

Get Your Daily Forecast Email!

Thanks for signing up!

Be on the lookout for a verification email in your inbox.

You'll start receiving the daily forecast at 8 AM.

×

10-Day Weather Forecast

No radar image for this location.
×

Almanac

ستاره شناسی

Jan. 17, 2017 Rise Set
وقت حقیقی
تاریک و روشن اجتماعی
تاریک روشن دریایی
شفق و فلق نجومی
ماه
میزان روشنایی روز
طول روز
Tomorrow will be .
, % of the Moon is Illuminated

Today's Extremes

Country Highs Country Lows

Community

WunderPhotos

Upload Photos

1,962,540 photos uploaded!

WunderBlog® & News

Nearby

تمیزی هوا

  تمیزی هوا AQ Index آلاینده
Not available.

عمق برف

Station Depth Elevation

Earthquake Activity

شهر Distance Mag. Time & Date
Minimum magnitude displayed is 2.5.

Coastal Water Temperatures

منطقه درجه حرارت

Stations

Nearby Weather Stations

Station Location دما باد سرد قطره شبنم رطوبت باد Precip. Elev ارتقا دادن Type